Time;durP1;ratioP1;P1;durP2;ratioP2;P2;SDS_P1;SDS_P2;PMS_P1;PMS_P2;Temp;Humidity;BMP_temperature;BMP_pressure;BME280_temperature;BME280_humidity;BME280_pressure;Samples;Min_cycle;Max_cycle;Signal;HPM_P1;HPM_P2
2023/04/24 00:01:31;;;;;;;0.63;0.63;;;;;;;7.76;100.00;91673.59;5016074;28;20038;-77
2023/04/24 00:03:59;;;;;;;1.42;0.60;;;;;;;7.78;100.00;91654.00;5016357;28;20048;-78
2023/04/24 00:06:32;;;;;;;0.70;0.70;;;;;;;7.54;100.00;91646.34;5015752;28;20030;-77
2023/04/24 00:09:00;;;;;;;1.02;0.80;;;;;;;7.46;100.00;91647.00;5014566;28;20061;-78
2023/04/24 00:11:26;;;;;;;1.45;0.80;;;;;;;7.42;100.00;91659.06;5015726;28;20109;-79
2023/04/24 00:13:52;;;;;;;1.52;0.90;;;;;;;7.39;100.00;91662.25;4999287;28;20037;-78
2023/04/24 00:16:18;;;;;;;1.67;1.00;;;;;;;7.34;100.00;91668.31;5015248;28;20030;-77
2023/04/24 00:18:44;;;;;;;1.10;0.80;;;;;;;7.31;100.00;91676.66;5017086;28;20044;-79
2023/04/24 00:21:10;;;;;;;0.75;0.70;;;;;;;7.24;100.00;91682.25;5016060;28;20036;-78
2023/04/24 00:23:36;;;;;;;0.73;0.73;;;;;;;7.26;100.00;91677.53;5015471;28;20042;-78
2023/04/24 00:26:02;;;;;;;0.60;0.60;;;;;;;7.26;100.00;91687.16;5016523;28;20551;-79
2023/04/24 00:28:27;;;;;;;0.55;0.55;;;;;;;7.27;100.00;91686.09;5000741;28;20037;-79
2023/04/24 00:30:53;;;;;;;0.82;0.70;;;;;;;7.29;100.00;91679.56;5017821;28;20061;-79
2023/04/24 00:33:19;;;;;;;0.82;0.82;;;;;;;7.29;100.00;91678.78;5000579;28;20011;-79
2023/04/24 00:35:45;;;;;;;0.85;0.73;;;;;;;7.35;100.00;91669.06;5017706;28;20029;-79
2023/04/24 00:38:10;;;;;;;1.10;0.60;;;;;;;7.33;100.00;91664.13;5016271;28;20416;-78
2023/04/24 00:40:36;;;;;;;1.35;0.70;;;;;;;7.31;100.00;91653.25;5014517;28;20488;-78
2023/04/24 00:43:02;;;;;;;0.82;0.65;;;;;;;7.26;100.00;91638.47;5015058;28;20014;-78
2023/04/24 00:45:27;;;;;;;1.52;0.80;;;;;;;7.26;100.00;91638.47;5015197;28;20101;-78
2023/04/24 00:47:53;;;;;;;0.80;0.80;;;;;;;7.28;100.00;91631.16;5015599;28;20038;-78
2023/04/24 00:50:21;;;;;;;0.60;0.60;;;;;;;7.29;100.00;91626.72;4998999;28;20037;-77
2023/04/24 00:52:47;;;;;;;0.50;0.50;;;;;;;7.33;100.00;91619.88;5015949;28;20061;-77
2023/04/24 00:55:12;;;;;;;0.50;0.50;;;;;;;7.35;100.00;91622.22;5016160;28;20049;-79
2023/04/24 00:57:38;;;;;;;0.68;0.60;;;;;;;7.33;100.00;91621.72;5015328;28;20037;-79
2023/04/24 01:00:05;;;;;;;0.68;0.68;;;;;;;7.36;100.00;91626.34;5015950;28;20057;-79
2023/04/24 01:02:34;;;;;;;0.70;0.70;;;;;;;7.33;100.00;91622.50;4999201;28;20041;-79
2023/04/24 01:05:01;;;;;;;0.75;0.70;;;;;;;7.31;100.00;91624.59;5015898;28;20053;-79
2023/04/24 01:07:27;;;;;;;2.38;0.80;;;;;;;7.24;100.00;91614.56;5017003;28;20030;-79
2023/04/24 01:09:53;;;;;;;0.68;0.68;;;;;;;7.16;100.00;91612.63;5015899;28;20448;-79
2023/04/24 01:12:19;;;;;;;0.77;0.70;;;;;;;7.14;100.00;91619.16;5016870;28;20021;-79
2023/04/24 01:14:45;;;;;;;0.80;0.80;;;;;;;7.02;100.00;91619.59;5015329;28;20085;-79
2023/04/24 01:17:10;;;;;;;0.80;0.80;;;;;;;6.90;100.00;91614.84;5015921;28;20136;-79
2023/04/24 01:19:37;;;;;;;0.93;0.70;;;;;;;6.84;100.00;91608.19;5014014;28;20447;-80
2023/04/24 01:22:08;;;;;;;2.25;0.80;;;;;;;6.80;100.00;91615.00;5015228;28;20034;-79
2023/04/24 01:24:34;;;;;;;1.20;0.90;;;;;;;6.77;100.00;91605.94;5016637;28;20567;-79
2023/04/24 01:27:01;;;;;;;0.68;0.68;;;;;;;6.75;100.00;91608.06;5016529;28;20045;-79
2023/04/24 01:29:27;;;;;;;0.73;0.73;;;;;;;6.73;100.00;91607.56;5012220;28;20104;-79
2023/04/24 01:31:53;;;;;;;1.45;0.90;;;;;;;6.73;100.00;91606.78;5015985;28;20121;-79
2023/04/24 01:34:19;;;;;;;1.10;1.00;;;;;;;6.73;100.00;91610.16;5015440;28;20045;-79
2023/04/24 01:36:46;;;;;;;0.80;0.80;;;;;;;6.72;100.00;91613.81;5015004;28;20030;-79
2023/04/24 01:39:12;;;;;;;1.48;1.02;;;;;;;6.71;100.00;91609.69;5016090;28;20128;-79
2023/04/24 01:41:38;;;;;;;1.45;0.85;;;;;;;6.71;100.00;91606.31;5016170;28;20454;-79
2023/04/24 01:44:03;;;;;;;1.48;0.88;;;;;;;6.70;100.00;91599.56;5014814;28;20034;-79
2023/04/24 01:46:30;;;;;;;0.90;0.90;;;;;;;6.70;100.00;91589.16;5014082;28;20496;-79
2023/04/24 01:48:59;;;;;;;1.23;0.90;;;;;;;6.66;100.00;91592.34;5015237;28;20447;-79
2023/04/24 01:51:24;;;;;;;1.15;1.00;;;;;;;6.62;100.00;91591.34;5015462;28;20038;-79
2023/04/24 01:53:50;;;;;;;1.00;0.90;;;;;;;6.60;100.00;91601.25;5015558;28;20048;-78
2023/04/24 01:56:16;;;;;;;1.30;1.05;;;;;;;6.60;100.00;91600.50;5013999;28;20038;-79
2023/04/24 01:58:43;;;;;;;1.02;0.93;;;;;;;6.60;100.00;91603.09;5014366;28;20041;-79
2023/04/24 02:01:09;;;;;;;1.00;0.80;;;;;;;6.59;100.00;91606.75;5015120;28;20381;-79
2023/04/24 02:03:34;;;;;;;3.30;1.10;;;;;;;6.51;100.00;91594.38;5013038;28;20034;-79
2023/04/24 02:06:00;;;;;;;1.70;1.23;;;;;;;6.45;100.00;91594.44;5016070;28;20100;-79
2023/04/24 02:08:25;;;;;;;1.70;1.20;;;;;;;6.46;100.00;91606.41;5014380;28;20044;-79
2023/04/24 02:10:51;;;;;;;2.22;1.42;;;;;;;6.47;100.00;91596.78;5014736;28;20030;-79
2023/04/24 02:13:17;;;;;;;2.28;1.35;;;;;;;6.47;100.00;91588.97;5014601;28;20136;-79
2023/04/24 02:15:42;;;;;;;2.55;1.45;;;;;;;6.51;100.00;91576.16;5014842;28;20038;-79
2023/04/24 02:18:08;;;;;;;2.30;1.50;;;;;;;6.53;100.00;91577.44;5014940;28;20400;-79
2023/04/24 02:20:35;;;;;;;2.50;1.58;;;;;;;6.59;100.00;91576.31;5015402;28;20041;-79
2023/04/24 02:23:01;;;;;;;2.35;1.60;;;;;;;6.64;100.00;91576.25;5013963;28;20088;-79
2023/04/24 02:25:26;;;;;;;2.75;1.52;;;;;;;6.65;100.00;91588.19;5014555;28;20079;-79
2023/04/24 02:27:54;;;;;;;3.38;1.70;;;;;;;6.63;100.00;91581.72;5014803;28;20045;-79
2023/04/24 02:30:20;;;;;;;2.78;1.77;;;;;;;6.63;100.00;91584.31;5015328;28;20037;-78
2023/04/24 02:32:46;;;;;;;2.38;1.60;;;;;;;6.60;100.00;91580.47;4998122;28;20119;-79
2023/04/24 02:35:11;;;;;;;2.67;1.77;;;;;;;6.58;100.00;91574.00;5014413;28;20048;-78
2023/04/24 02:37:37;;;;;;;4.55;1.88;;;;;;;6.53;100.00;91576.66;4996576;28;20037;-78
2023/04/24 02:40:03;;;;;;;2.78;1.73;;;;;;;6.52;100.00;91578.50;5011929;28;20175;-78
2023/04/24 02:42:29;;;;;;;2.75;1.77;;;;;;;6.50;100.00;91569.44;5013596;28;20042;-78
2023/04/24 02:44:56;;;;;;;2.92;1.70;;;;;;;6.45;100.00;91570.28;5012485;28;20072;-78
2023/04/24 02:47:22;;;;;;;2.03;1.20;;;;;;;6.46;100.00;91570.00;5012169;28;20492;-78
2023/04/24 02:49:48;;;;;;;2.38;1.05;;;;;;;6.43;100.00;91570.56;5012659;28;20030;-78
2023/04/24 02:52:14;;;;;;;2.30;1.45;;;;;;;6.39;100.00;91566.97;5012316;28;20088;-78
2023/04/24 02:54:40;;;;;;;1.52;1.20;;;;;;;6.36;100.00;91569.38;5012353;28;20439;-77
2023/04/24 02:57:06;;;;;;;2.50;1.50;;;;;;;6.32;100.00;91561.34;5012837;28;20084;-78
2023/04/24 02:59:31;;;;;;;1.95;1.38;;;;;;;6.29;100.00;91564.53;4996275;28;20034;-78
2023/04/24 03:01:57;;;;;;;4.50;2.15;;;;;;;6.23;100.00;91553.41;5012474;28;20053;-78
2023/04/24 03:04:23;;;;;;;3.05;1.83;;;;;;;6.22;100.00;91558.91;5012240;28;20084;-78
2023/04/24 03:06:48;;;;;;;1.17;0.95;;;;;;;6.13;100.00;91560.59;5013708;28;20034;-78
2023/04/24 03:09:14;;;;;;;1.35;1.13;;;;;;;6.07;100.00;91562.50;5017524;28;20407;-78
2023/04/24 03:11:40;;;;;;;1.55;1.00;;;;;;;6.02;100.00;91565.16;5017989;28;20037;-79
2023/04/24 03:14:07;;;;;;;2.00;1.00;;;;;;;5.99;100.00;91555.31;5017571;28;20018;-79
2023/04/24 03:16:33;;;;;;;1.10;0.90;;;;;;;5.93;100.00;91551.22;4996426;28;20040;-77
2023/04/24 03:18:58;;;;;;;2.90;0.98;;;;;;;5.91;100.00;91548.91;4995414;28;20030;-78
2023/04/24 03:21:26;;;;;;;3.28;1.00;;;;;;;5.83;100.00;91544.31;4996635;28;20034;-78
2023/04/24 03:23:52;;;;;;;0.80;0.80;;;;;;;5.77;100.00;91532.47;4995880;28;20153;-78
2023/04/24 03:26:18;;;;;;;0.77;0.70;;;;;;;5.76;100.00;91525.72;5012779;28;20054;-79
2023/04/24 03:28:56;;;;;;;0.93;0.85;;;;;;;5.72;100.00;91524.72;5031592;28;20054;-78
2023/04/24 03:31:22;;;;;;;1.20;1.05;;;;;;;5.74;100.00;91522.63;5031875;28;20050;-78
2023/04/24 03:33:47;;;;;;;1.08;0.90;;;;;;;5.68;100.00;91521.94;5016877;28;20511;-78
2023/04/24 03:36:13;;;;;;;1.38;0.90;;;;;;;5.58;100.00;91530.63;5034917;28;20034;-78
2023/04/24 03:38:40;;;;;;;2.05;0.90;;;;;;;5.50;100.00;91523.44;5034719;28;20145;-77
2023/04/24 03:41:28;;;;;;;0.82;0.80;;;;;;;5.50;100.00;91509.69;5031654;28;20042;-78
2023/04/24 03:44:00;;;;;;;;;;;;;;;5.45;100.00;91510.53;5000037;28;20504;-77
2023/04/24 03:46:25;;;;;;;1.83;1.20;;;;;;;5.45;100.00;91499.34;4999003;28;19929;-79
2023/04/24 03:48:55;;;;;;;1.15;1.00;;;;;;;5.42;100.00;91495.50;5000374;28;20029;-79
2023/04/24 03:51:27;;;;;;;1.02;0.90;;;;;;;5.41;100.00;91494.72;5016151;28;20057;-79
2023/04/24 03:53:56;;;;;;;3.65;1.10;;;;;;;5.40;100.00;91508.78;5000390;28;20407;-79
2023/04/24 03:56:23;;;;;;;1.05;0.90;;;;;;;5.40;100.00;91495.00;5016471;28;20067;-79
2023/04/24 03:58:49;;;;;;;1.35;1.10;;;;;;;5.43;100.00;91504.84;5016007;28;20067;-79
2023/04/24 04:01:15;;;;;;;1.42;1.05;;;;;;;5.41;100.00;91505.09;4999947;28;20045;-79
2023/04/24 04:03:41;;;;;;;2.05;1.13;;;;;;;5.43;100.00;91510.03;5017461;28;20056;-78
2023/04/24 04:06:07;;;;;;;0.88;0.88;;;;;;;5.41;100.00;91515.50;5016433;28;20128;-77
2023/04/24 04:08:33;;;;;;;1.17;0.80;;;;;;;5.40;100.00;91513.16;4999618;28;20081;-78
2023/04/24 04:10:58;;;;;;;1.23;0.90;;;;;;;5.39;100.00;91517.59;5015520;28;20034;-78
2023/04/24 04:13:24;;;;;;;0.88;0.80;;;;;;;5.38;100.00;91525.66;4998905;28;20128;-78
2023/04/24 04:15:50;;;;;;;1.02;0.93;;;;;;;5.38;100.00;91536.03;5015875;28;20033;-78
2023/04/24 04:18:16;;;;;;;0.77;0.77;;;;;;;5.37;100.00;91524.13;4983408;28;20038;-78
2023/04/24 04:20:42;;;;;;;1.15;1.00;;;;;;;5.37;100.00;91529.31;5015955;28;20499;-78
2023/04/24 04:23:08;;;;;;;1.88;1.15;;;;;;;5.39;100.00;91532.41;5016595;28;20045;-79
2023/04/24 04:25:44;;;;;;;1.08;0.98;;;;;;;5.36;100.00;91533.72;4987381;28;20037;-79
2023/04/24 04:28:10;;;;;;;0.90;0.82;;;;;;;5.35;100.00;91541.78;5016176;28;20040;-78
2023/04/24 04:30:39;;;;;;;0.98;0.80;;;;;;;5.38;100.00;91530.84;4980983;28;20045;-77
2023/04/24 04:33:06;;;;;;;0.70;0.70;;;;;;;5.39;100.00;91535.75;5013574;28;20044;-78
2023/04/24 04:35:32;;;;;;;0.80;0.70;;;;;;;5.42;100.00;91542.22;4998459;28;20041;-78
2023/04/24 04:37:58;;;;;;;1.17;0.90;;;;;;;5.46;100.00;91545.81;4982560;28;20042;-79
2023/04/24 04:40:28;;;;;;;1.00;0.90;;;;;;;5.48;100.00;91546.31;5001703;28;20041;-77
2023/04/24 04:42:59;;;;;;;;;;;;;;;5.53;100.00;91559.22;5007749;28;20033;-78
2023/04/24 04:45:28;;;;;;;0.90;0.80;;;;;;;5.51;100.00;91563.16;4997938;28;20323;-81
2023/04/24 04:48:27;;;;;;;1.48;0.82;;;;;;;5.50;100.00;91572.75;4992723;28;20192;-82
2023/04/24 04:50:54;;;;;;;2.15;0.95;;;;;;;5.47;100.00;91569.94;4999720;28;20038;-80
2023/04/24 04:53:21;;;;;;;1.10;1.00;;;;;;;5.47;100.00;91575.13;5016227;28;20103;-81
2023/04/24 04:55:47;;;;;;;1.02;0.80;;;;;;;5.46;100.00;91581.38;5015535;28;20042;-81
2023/04/24 04:58:17;;;;;;;1.17;0.90;;;;;;;5.35;100.00;91578.13;5015243;28;20042;-79
2023/04/24 05:00:44;;;;;;;1.85;1.27;;;;;;;5.31;100.00;91577.88;4983644;28;20073;-80
2023/04/24 05:03:30;;;;;;;1.30;1.10;;;;;;;5.31;100.00;91582.31;5014691;28;20054;-81
2023/04/24 05:06:04;;;;;;;1.65;1.10;;;;;;;5.31;100.00;91582.31;4985772;28;20044;-80
2023/04/24 05:08:33;;;;;;;2.50;1.30;;;;;;;5.31;100.00;91577.13;5014173;28;20081;-82
2023/04/24 05:10:59;;;;;;;2.33;1.30;;;;;;;5.40;100.00;91585.84;4999664;28;20046;-80
2023/04/24 05:13:27;;;;;;;2.42;1.40;;;;;;;5.47;100.00;91591.50;5000118;28;20087;-81
2023/04/24 05:15:53;;;;;;;2.17;1.23;;;;;;;5.50;100.00;91587.56;5016457;28;20136;-81
2023/04/24 05:18:19;;;;;;;3.05;1.38;;;;;;;5.51;100.00;91584.69;4999485;28;20042;-82
2023/04/24 05:20:49;;;;;;;3.17;1.10;;;;;;;5.51;100.00;91583.91;5001546;28;20034;-82
2023/04/24 05:23:15;;;;;;;1.98;1.00;;;;;;;5.51;100.00;91584.69;5017987;28;20041;-82
2023/04/24 05:25:43;;;;;;;1.05;0.88;;;;;;;5.52;100.00;91572.50;5016502;28;20029;-81
2023/04/24 05:28:11;;;;;;;1.27;1.05;;;;;;;5.59;100.00;91575.53;5015441;28;20124;-82
2023/04/24 05:30:37;;;;;;;1.35;1.17;;;;;;;5.66;100.00;91585.56;5000774;28;20038;-80
2023/04/24 05:33:10;;;;;;;1.63;0.93;;;;;;;5.69;100.00;91592.81;5015748;28;20038;-82
2023/04/24 05:35:35;;;;;;;2.17;1.10;;;;;;;5.70;100.00;91596.97;5015448;28;20099;-82
2023/04/24 05:38:08;;;;;;;1.42;1.00;;;;;;;5.72;100.00;91589.63;5016104;28;20025;-82
2023/04/24 05:40:34;;;;;;;4.20;1.02;;;;;;;5.76;100.00;91590.63;5031515;28;20043;-81
2023/04/24 05:43:15;;;;;;;1.20;1.05;;;;;;;5.80;100.00;91594.22;5017342;28;20511;-81
2023/04/24 05:45:43;;;;;;;2.58;1.08;;;;;;;5.84;100.00;91597.81;5015962;28;20064;-81
2023/04/24 05:48:08;;;;;;;1.05;0.80;;;;;;;5.91;100.00;91595.66;5016434;28;20030;-81
2023/04/24 05:50:38;;;;;;;1.20;0.90;;;;;;;6.01;100.00;91592.97;5016735;28;20046;-81
2023/04/24 05:53:04;;;;;;;0.70;0.70;;;;;;;6.08;100.00;91594.44;5031999;28;20036;-78
2023/04/24 05:55:33;;;;;;;1.35;0.90;;;;;;;6.21;100.00;91593.75;5029467;28;20117;-77
2023/04/24 05:57:59;;;;;;;1.20;0.93;;;;;;;6.40;100.00;91596.34;5011917;28;20149;-77
2023/04/24 06:00:25;;;;;;;2.05;0.98;;;;;;;6.58;100.00;91592.97;5012269;28;20033;-77
2023/04/24 06:03:00;;;;;;;5.07;1.73;;;;;;;6.76;100.00;91604.41;5011353;28;20036;-77
2023/04/24 06:05:26;;;;;;;2.05;1.10;;;;;;;6.98;100.00;91603.81;5011753;28;20110;-77
2023/04/24 06:07:52;;;;;;;1.35;0.90;;;;;;;7.17;100.00;91598.53;5028453;28;20534;-77
2023/04/24 06:10:20;;;;;;;2.00;1.00;;;;;;;7.37;100.00;91594.06;5011712;28;20033;-77
2023/04/24 06:12:46;;;;;;;1.02;0.77;;;;;;;7.76;100.00;91603.25;4994970;28;20527;-77
2023/04/24 06:15:16;;;;;;;1.50;0.85;;;;;;;8.56;100.00;91604.50;5010386;28;20040;-77
2023/04/24 06:17:56;;;;;;;4.65;1.52;;;;;;;9.68;100.00;91608.91;5010914;28;20042;-77
2023/04/24 06:20:21;;;;;;;5.60;1.83;;;;;;;10.55;100.00;91611.75;5011358;28;20474;-77
2023/04/24 06:22:47;;;;;;;1.92;1.08;;;;;;;11.58;100.00;91619.06;5011727;28;20112;-77
2023/04/24 06:25:13;;;;;;;3.92;1.63;;;;;;;12.41;100.00;91607.31;5013384;28;20439;-78
2023/04/24 06:27:38;;;;;;;3.25;1.27;;;;;;;13.23;100.00;91598.97;5014745;28;20120;-78
2023/04/24 06:30:04;;;;;;;1.83;1.10;;;;;;;14.25;100.00;91600.06;5014225;28;20413;-78
2023/04/24 06:32:30;;;;;;;2.17;0.88;;;;;;;15.06;100.00;91610.69;5012335;28;20381;-78
2023/04/24 06:34:58;;;;;;;1.10;1.00;;;;;;;16.08;93.56;91609.56;5016204;28;20033;-79
2023/04/24 06:37:24;;;;;;;9.77;1.85;;;;;;;16.66;87.46;91615.03;5023831;28;20026;-78
2023/04/24 06:39:50;;;;;;;3.05;0.98;;;;;;;17.15;80.73;91611.94;5013866;28;20034;-78
2023/04/24 06:42:15;;;;;;;2.58;1.40;;;;;;;17.38;80.41;91606.72;5013929;28;20045;-77
2023/04/24 06:44:43;;;;;;;2.92;1.10;;;;;;;17.52;78.15;91614.16;5020539;28;20153;-76
2023/04/24 06:47:09;;;;;;;6.03;1.70;;;;;;;17.58;71.07;91618.03;5015508;28;20503;-79
2023/04/24 06:49:36;;;;;;;3.63;1.20;;;;;;;17.90;72.99;91617.91;5017954;28;20044;-78
2023/04/24 06:52:02;;;;;;;3.28;1.40;;;;;;;17.67;69.15;91620.47;5017543;28;20037;-78
2023/04/24 06:54:28;;;;;;;1.40;1.02;;;;;;;17.41;72.90;91619.25;5015864;28;20037;-76
2023/04/24 06:56:55;;;;;;;1.35;0.80;;;;;;;17.35;71.59;91623.28;5014469;28;20073;-77
2023/04/24 06:59:20;;;;;;;2.45;1.05;;;;;;;17.42;73.14;91620.00;5014307;28;20479;-76
2023/04/24 07:01:46;;;;;;;1.63;0.70;;;;;;;17.12;69.33;91620.56;5013756;28;20040;-77
2023/04/24 07:04:12;;;;;;;8.98;2.03;;;;;;;16.91;71.41;91626.19;5014935;28;20041;-77
2023/04/24 07:06:38;;;;;;;1.70;0.90;;;;;;;17.06;68.38;91628.00;5013751;28;20080;-78
2023/04/24 07:09:04;;;;;;;2.85;1.13;;;;;;;17.23;71.31;91629.47;5014496;28;20037;-78
2023/04/24 07:11:30;;;;;;;1.23;0.90;;;;;;;17.40;73.30;91627.53;5016632;28;20557;-78
2023/04/24 07:13:56;;;;;;;3.42;0.98;;;;;;;17.03;69.75;91627.94;5016068;28;20073;-78
2023/04/24 07:16:21;;;;;;;2.05;0.88;;;;;;;17.33;68.79;91622.09;5015799;28;20124;-78
2023/04/24 07:18:47;;;;;;;1.10;0.80;;;;;;;17.05;69.43;91625.72;5016622;28;20052;-77
2023/04/24 07:21:13;;;;;;;1.98;1.00;;;;;;;16.98;67.76;91630.84;5015105;28;20117;-77
2023/04/24 07:23:41;;;;;;;1.67;0.70;;;;;;;16.48;66.35;91632.34;5000309;28;20059;-78
2023/04/24 07:26:06;;;;;;;4.38;1.50;;;;;;;16.34;76.67;91625.63;5031595;28;20514;-80
2023/04/24 07:28:32;;;;;;;3.33;1.60;;;;;;;15.96;83.50;91619.09;5015222;28;20046;-80
2023/04/24 07:30:59;;;;;;;0.98;0.88;;;;;;;15.87;75.32;91621.13;5000182;28;20439;-79
2023/04/24 07:33:28;;;;;;;0.80;0.80;;;;;;;16.29;74.14;91625.16;5017891;28;20037;-78
2023/04/24 07:35:54;;;;;;;0.50;0.50;;;;;;;16.44;67.90;91619.84;5016888;28;20034;-84
2023/04/24 07:38:21;;;;;;;2.95;0.60;;;;;;;16.68;69.96;91620.72;5019956;28;20032;-82
2023/04/24 07:40:48;;;;;;;1.35;1.10;;;;;;;16.15;72.77;91620.31;5022168;28;20042;-83
2023/04/24 07:43:14;;;;;;;2.00;1.23;;;;;;;15.86;77.71;91624.13;5021590;28;20037;-84
2023/04/24 07:45:40;;;;;;;3.60;1.48;;;;;;;15.78;82.07;91631.06;5022882;28;20028;-84
2023/04/24 07:48:06;;;;;;;2.90;1.10;;;;;;;15.23;76.20;91619.44;5022344;28;20038;-82
2023/04/24 07:50:31;;;;;;;1.70;1.00;;;;;;;14.76;73.39;91618.88;5021744;28;20132;-82
2023/04/24 07:52:57;;;;;;;1.83;0.98;;;;;;;14.74;80.80;91610.53;5020814;28;20030;-81
2023/04/24 07:55:23;;;;;;;5.85;1.58;;;;;;;14.21;87.71;91625.50;5020860;28;20098;-83
2023/04/24 07:57:48;;;;;;;2.28;1.00;;;;;;;13.90;90.77;91624.16;5023929;28;20030;-82
2023/04/24 08:00:14;;;;;;;1.38;1.00;;;;;;;13.42;97.86;91627.41;5005966;28;20130;-82
2023/04/24 08:02:40;;;;;;;1.02;0.80;;;;;;;13.48;94.48;91620.88;5019558;28;20034;-83
2023/04/24 08:05:07;;;;;;;1.45;1.20;;;;;;;13.46;96.69;91618.56;5020171;28;20085;-82
2023/04/24 08:07:33;;;;;;;1.58;1.20;;;;;;;13.59;98.71;91615.97;5036050;28;20038;-80
2023/04/24 08:09:59;;;;;;;2.55;1.20;;;;;;;13.80;96.13;91616.66;4999480;28;20034;-79
2023/04/24 08:12:25;;;;;;;2.10;1.15;;;;;;;14.07;95.34;91625.03;5014534;28;20113;-77
2023/04/24 08:14:50;;;;;;;1.85;1.20;;;;;;;13.86;94.45;91623.25;5012232;28;20479;-76
2023/04/24 08:17:17;;;;;;;5.72;1.48;;;;;;;13.57;95.38;91626.06;5013483;28;20111;-78
2023/04/24 08:19:47;;;;;;;2.85;1.00;;;;;;;13.58;90.81;91623.09;5013203;28;20519;-77
2023/04/24 08:22:15;;;;;;;0.93;0.90;;;;;;;13.51;82.23;91621.00;5012522;28;20038;-77
2023/04/24 08:24:40;;;;;;;1.35;0.98;;;;;;;13.46;93.64;91625.69;5016442;28;20089;-78
2023/04/24 08:27:06;;;;;;;1.70;1.00;;;;;;;13.54;87.43;91630.88;5016537;28;20072;-77
2023/04/24 08:29:32;;;;;;;2.10;0.80;;;;;;;13.65;84.14;91630.47;5016357;28;20420;-78
2023/04/24 08:31:57;;;;;;;6.82;3.78;;;;;;;13.65;87.27;91627.84;5016902;28;20067;-78
2023/04/24 08:34:25;;;;;;;2.15;1.20;;;;;;;13.37;94.21;91631.03;5017328;28;20045;-78
2023/04/24 08:36:51;;;;;;;1.80;1.33;;;;;;;13.48;92.98;91631.41;5016137;28;20079;-78
2023/04/24 08:39:17;;;;;;;2.67;1.10;;;;;;;13.71;88.22;91634.41;5013484;28;20483;-77
2023/04/24 08:41:45;;;;;;;3.22;1.27;;;;;;;13.52;95.16;91627.03;5013922;28;20033;-77
2023/04/24 08:44:12;;;;;;;1.67;1.00;;;;;;;13.53;84.03;91636.44;5014204;28;20034;-77
2023/04/24 08:46:40;;;;;;;0.90;0.60;;;;;;;13.63;82.51;91635.28;5012989;28;20396;-77
2023/04/24 08:49:06;;;;;;;3.15;1.10;;;;;;;13.64;93.65;91639.44;5014914;28;20045;-76
2023/04/24 08:51:31;;;;;;;2.20;1.20;;;;;;;13.49;99.29;91633.72;4993997;28;20049;-77
2023/04/24 08:53:58;;;;;;;6.15;1.63;;;;;;;13.40;100.00;91627.00;4996464;28;20408;-78
2023/04/24 08:56:24;;;;;;;2.75;1.40;;;;;;;13.21;100.00;91637.94;4996849;28;20052;-77
2023/04/24 08:58:54;;;;;;;3.45;1.42;;;;;;;13.58;100.00;91640.72;4996318;28;20030;-78
2023/04/24 09:01:22;;;;;;;2.10;1.25;;;;;;;13.65;98.11;91630.47;4995659;28;20468;-78
2023/04/24 09:03:49;;;;;;;1.08;0.98;;;;;;;13.85;94.71;91639.41;4995095;28;20033;-78
2023/04/24 09:06:17;;;;;;;2.75;1.30;;;;;;;13.90;87.27;91641.81;4994807;28;20129;-78
2023/04/24 09:08:45;;;;;;;1.38;1.05;;;;;;;14.03;96.70;91637.34;4996488;28;20074;-78
2023/04/24 09:11:11;;;;;;;2.55;0.95;;;;;;;14.15;93.97;91639.97;4996465;28;20034;-78
2023/04/24 09:13:43;;;;;;;2.88;1.50;;;;;;;14.62;96.05;91634.28;5011971;28;20505;-78
2023/04/24 09:16:09;;;;;;;1.45;0.90;;;;;;;14.80;81.57;91640.06;5012923;28;20034;-78
2023/04/24 09:18:36;;;;;;;3.55;1.10;;;;;;;14.98;92.02;91635.31;4997452;28;20033;-78
2023/04/24 09:21:09;;;;;;;2.67;1.20;;;;;;;14.47;90.07;91642.81;4995499;28;20057;-78
2023/04/24 09:23:35;;;;;;;2.40;1.25;;;;;;;14.10;89.60;91640.94;4995721;28;20374;-78
2023/04/24 09:26:06;;;;;;;1.90;1.30;;;;;;;14.05;93.48;91643.00;4997364;28;20028;-78
2023/04/24 09:28:40;;;;;;;1.60;1.10;;;;;;;14.12;88.40;91645.91;4997731;28;20054;-78
2023/04/24 09:31:17;;;;;;;1.13;0.90;;;;;;;14.19;89.42;91643.47;5014384;28;20045;-78
2023/04/24 09:34:10;;;;;;;2.42;1.02;;;;;;;14.35;87.34;91646.22;5015301;28;20111;-78
2023/04/24 09:36:38;;;;;;;;;;;;;;;14.18;87.25;91646.44;5012752;28;20053;-78
2023/04/24 09:39:07;;;;;;;1.90;1.20;;;;;;;14.04;87.26;91646.75;5013971;28;19917;-77
2023/04/24 09:41:33;;;;;;;1.92;1.30;;;;;;;14.25;90.81;91641.38;5012791;28;20065;-77
2023/04/24 09:44:14;;;;;;;1.75;1.10;;;;;;;14.28;88.65;91648.66;5013591;28;20034;-78
2023/04/24 09:46:41;;;;;;;1.27;1.08;;;;;;;14.58;86.92;91641.31;5013659;28;20052;-76
2023/04/24 09:49:16;;;;;;;3.22;1.17;;;;;;;14.69;84.86;91650.28;5011421;28;20381;-78
2023/04/24 09:51:42;;;;;;;2.38;1.20;;;;;;;14.89;84.40;91647.84;5013763;28;20442;-78
2023/04/24 09:54:18;;;;;;;4.28;0.82;;;;;;;14.87;80.17;91655.31;5014061;28;20087;-78
2023/04/24 09:56:45;;;;;;;2.15;0.80;;;;;;;15.25;83.61;91654.13;5013785;28;20129;-78
2023/04/24 09:59:12;;;;;;;0.95;0.80;;;;;;;15.36;77.94;91652.56;5014992;28;20038;-76
2023/04/24 10:01:41;;;;;;;2.28;0.90;;;;;;;15.71;73.51;91658.03;5012834;28;20137;-77
2023/04/24 10:04:15;;;;;;;1.40;0.93;;;;;;;15.13;77.38;91655.72;5016950;28;20499;-79
2023/04/24 10:06:42;;;;;;;2.67;0.90;;;;;;;14.86;84.15;91654.56;5008364;28;20049;-79
2023/04/24 10:09:11;;;;;;;2.70;0.95;;;;;;;15.16;72.71;91657.66;5019477;28;20036;-79
2023/04/24 10:11:37;;;;;;;1.42;0.70;;;;;;;15.52;71.62;91657.88;5020770;28;20511;-77
2023/04/24 10:14:03;;;;;;;0.65;0.65;;;;;;;15.82;68.39;91655.69;5028447;28;20031;-79
2023/04/24 10:16:31;;;;;;;1.05;0.93;;;;;;;16.01;67.66;91652.41;5012658;28;20041;-79
2023/04/24 10:18:59;;;;;;;1.33;0.98;;;;;;;16.30;65.74;91653.84;5018080;28;20025;-78
2023/04/24 10:21:26;;;;;;;0.93;0.80;;;;;;;16.56;67.43;91661.25;5018516;28;20025;-77
2023/04/24 10:23:53;;;;;;;4.28;1.08;;;;;;;16.45;66.77;91657.59;5019114;28;20516;-79
2023/04/24 10:26:20;;;;;;;1.88;1.10;;;;;;;15.87;73.27;91667.84;5018588;28;20037;-78
2023/04/24 10:28:47;;;;;;;1.10;0.90;;;;;;;15.68;65.59;91665.84;5018446;28;20069;-78
2023/04/24 10:31:14;;;;;;;0.90;0.90;;;;;;;15.65;66.34;91662.00;5018126;28;20045;-79
2023/04/24 10:33:43;;;;;;;0.65;0.63;;;;;;;15.53;64.41;91665.44;5018010;28;20040;-77
2023/04/24 10:36:12;;;;;;;0.80;0.80;;;;;;;15.59;68.66;91668.63;4998097;28;20057;-77
2023/04/24 10:38:40;;;;;;;2.42;0.73;;;;;;;15.92;64.67;91667.59;5011130;28;20022;-77
2023/04/24 10:41:15;;;;;;;1.88;0.88;;;;;;;15.60;61.46;91670.94;5014831;28;20108;-77
2023/04/24 10:43:42;;;;;;;1.65;0.82;;;;;;;16.37;66.20;91663.78;5014443;28;20046;-76
2023/04/24 10:46:10;;;;;;;0.63;0.63;;;;;;;16.78;60.53;91672.31;5020532;28;20030;-77
2023/04/24 10:48:41;;;;;;;0.77;0.77;;;;;;;17.15;62.50;91672.75;5014620;28;20092;-77
2023/04/24 10:51:12;;;;;;;4.07;0.82;;;;;;;17.00;58.02;91670.91;5027016;28;20029;-77
2023/04/24 10:53:38;;;;;;;1.25;1.00;;;;;;;16.32;59.41;91667.47;4995239;28;20464;-77
2023/04/24 10:56:06;;;;;;;1.83;0.85;;;;;;;15.74;63.40;91667.94;5025488;28;20038;-78
2023/04/24 10:58:43;;;;;;;0.98;0.80;;;;;;;15.61;61.90;91664.53;5013610;28;20065;-77
2023/04/24 11:01:08;;;;;;;1.60;0.95;;;;;;;16.15;60.28;91659.91;5014794;28;20454;-77
2023/04/24 11:03:36;;;;;;;1.05;0.85;;;;;;;15.67;61.16;91659.00;5013672;28;20034;-77
2023/04/24 11:06:02;;;;;;;1.02;0.93;;;;;;;15.57;59.65;91665.56;5014498;28;20116;-77
2023/04/24 11:08:43;;;;;;;0.70;0.68;;;;;;;15.65;60.04;91659.38;5014344;28;20113;-77
2023/04/24 11:11:15;;;;;;;1.15;0.85;;;;;;;15.58;62.35;91661.81;5014955;28;20022;-77
2023/04/24 11:13:56;;;;;;;3.40;0.90;;;;;;;15.33;60.59;91666.41;5013153;28;20044;-77
2023/04/24 11:16:44;;;;;;;1.02;0.80;;;;;;;15.15;58.91;91671.97;4999808;28;20053;-77
2023/04/24 11:19:16;;;;;;;0.75;0.73;;;;;;;15.09;59.64;91667.25;5014153;28;20045;-77
2023/04/24 11:22:00;;;;;;;0.80;0.73;;;;;;;15.01;54.77;91671.53;5013784;28;20045;-76
2023/04/24 11:24:27;;;;;;;0.70;0.70;;;;;;;14.86;51.85;91670.38;5015594;28;20041;-77
2023/04/24 11:27:04;;;;;;;1.33;0.70;;;;;;;15.06;57.14;91662.63;5029005;28;20561;-76
2023/04/24 11:29:44;;;;;;;1.02;0.70;;;;;;;15.07;59.05;91664.94;5012634;28;20049;-77
2023/04/24 11:32:30;;;;;;;1.20;0.77;;;;;;;14.94;57.95;91663.44;5012807;28;20533;-77
2023/04/24 11:34:58;;;;;;;2.42;1.00;;;;;;;14.85;58.63;91662.78;5013458;28;20033;-76
2023/04/24 11:37:36;;;;;;;0.90;0.70;;;;;;;15.19;59.34;91662.25;5012230;28;20033;-76